Time;durP1;ratioP1;P1;durP2;ratioP2;P2;SDS_P1;SDS_P2;PMS_P1;PMS_P2;Temp;Humidity;BMP_temperature;BMP_pressure;BME280_temperature;BME280_humidity;BME280_pressure;Samples;Min_cycle;Max_cycle;Signal;HPM_P1;HPM_P2
2020/12/02 00:03:02;;;;;;;23.58;15.05;;;1.30;99.90;;;;;;5020697;28;20044;-66
2020/12/02 00:05:31;;;;;;;17.95;14.05;;;1.30;99.90;;;;;;4985683;28;20060;-66
2020/12/02 00:08:06;;;;;;;22.27;16.98;;;1.30;99.90;;;;;;5015322;28;20045;-68
2020/12/02 00:10:33;;;;;;;21.45;15.68;;;1.30;99.90;;;;;;5020072;28;20050;-70
2020/12/02 00:13:00;;;;;;;20.27;14.05;;;1.30;99.90;;;;;;5024111;28;20139;-67
2020/12/02 00:15:27;;;;;;;20.10;14.77;;;1.40;99.90;;;;;;5021399;28;20045;-68
2020/12/02 00:17:55;;;;;;;25.63;15.80;;;1.40;99.90;;;;;;5020727;28;20057;-67
2020/12/02 00:20:23;;;;;;;18.77;15.13;;;1.40;99.90;;;;;;5022727;28;21410;-66
2020/12/02 00:22:49;;;;;;;24.27;15.68;;;1.40;99.90;;;;;;5016995;28;21223;-68
2020/12/02 00:25:16;;;;;;;20.58;14.25;;;1.40;99.90;;;;;;5023559;28;20131;-66
2020/12/02 00:27:43;;;;;;;17.60;13.70;;;1.40;99.90;;;;;;5022435;28;20635;-70
2020/12/02 00:30:12;;;;;;;18.60;14.32;;;1.40;99.90;;;;;;5018993;28;20584;-71
2020/12/02 00:32:43;;;;;;;15.18;12.52;;;1.40;99.90;;;;;;5020414;28;20138;-71
2020/12/02 00:35:16;;;;;;;18.65;13.93;;;1.40;99.90;;;;;;5015345;28;20065;-69
2020/12/02 00:37:43;;;;;;;17.33;13.65;;;1.40;99.90;;;;;;5021493;28;20072;-71
2020/12/02 00:40:12;;;;;;;18.80;14.50;;;1.50;99.90;;;;;;5022666;28;20076;-68
2020/12/02 00:42:38;;;;;;;16.20;11.88;;;1.50;99.90;;;;;;5016081;28;20053;-66
2020/12/02 00:45:09;;;;;;;14.70;12.32;;;1.50;99.90;;;;;;5022267;28;20071;-68
2020/12/02 00:47:36;;;;;;;17.55;13.57;;;1.50;99.90;;;;;;5014209;28;20049;-71
2020/12/02 00:50:07;;;;;;;16.60;11.88;;;1.50;99.90;;;;;;5018266;28;21325;-67
2020/12/02 00:52:34;;;;;;;18.48;14.00;;;1.50;99.90;;;;;;5014279;28;20056;-72
2020/12/02 00:55:01;;;;;;;14.85;11.48;;;1.50;99.90;;;;;;5017877;28;20343;-69
2020/12/02 00:57:33;;;;;;;17.30;11.85;;;1.50;99.90;;;;;;5049977;28;20222;-66
2020/12/02 01:00:00;;;;;;;;;;;1.50;99.90;;;;;;5019306;28;21306;-66
2020/12/02 01:02:56;;;;;;;15.68;12.63;;;1.50;99.90;;;;;;5018070;28;19925;-69
2020/12/02 01:05:22;;;;;;;17.67;12.43;;;1.50;99.90;;;;;;5015887;28;20061;-67
2020/12/02 01:07:49;;;;;;;16.08;12.48;;;1.40;99.90;;;;;;5018589;28;20124;-67
2020/12/02 01:10:15;;;;;;;14.55;11.88;;;1.40;99.90;;;;;;5022549;28;20041;-67
2020/12/02 01:12:47;;;;;;;14.45;11.23;;;1.40;99.90;;;;;;5018474;28;20161;-66
2020/12/02 01:15:20;;;;;;;14.55;12.38;;;1.40;99.90;;;;;;5015572;28;20121;-70
2020/12/02 01:18:06;;;;;;;19.13;14.18;;;1.40;99.90;;;;;;5018828;28;20049;-70
2020/12/02 01:20:33;;;;;;;17.33;11.93;;;1.40;99.90;;;;;;5021917;28;20060;-68
2020/12/02 01:22:59;;;;;;;17.02;12.60;;;1.40;99.90;;;;;;5018871;28;20076;-65
2020/12/02 01:25:26;;;;;;;16.25;12.82;;;1.50;99.90;;;;;;5022667;28;20049;-67
2020/12/02 01:28:17;;;;;;;16.20;13.50;;;1.50;99.90;;;;;;5019752;28;20071;-67
2020/12/02 01:30:44;;;;;;;15.48;12.32;;;1.50;99.90;;;;;;5015927;28;20507;-71
2020/12/02 01:33:15;;;;;;;16.88;13.45;;;1.50;99.90;;;;;;5018337;28;20068;-71
2020/12/02 01:35:43;;;;;;;;;;;1.50;99.90;;;;;;5022985;28;20055;-70
2020/12/02 01:38:12;;;;;;;15.25;11.80;;;1.50;99.90;;;;;;5018613;28;20544;-65
2020/12/02 01:40:40;;;;;;;18.90;13.30;;;1.60;99.90;;;;;;5016494;28;20045;-68
2020/12/02 01:43:11;;;;;;;16.00;13.32;;;1.60;99.90;;;;;;5017509;28;20507;-67
2020/12/02 01:45:42;;;;;;;15.40;12.00;;;1.60;99.90;;;;;;5019627;28;20987;-65
2020/12/02 01:48:26;;;;;;;17.25;13.45;;;1.60;99.90;;;;;;5016432;28;20045;-65
2020/12/02 01:51:07;;;;;;;16.42;12.40;;;1.70;99.90;;;;;;5016347;28;20061;-67
2020/12/02 01:53:37;;;;;;;14.00;11.55;;;1.70;99.90;;;;;;5022785;28;20052;-70
2020/12/02 01:56:22;;;;;;;16.83;12.30;;;1.70;99.90;;;;;;5017464;28;20132;-71
2020/12/02 01:58:57;;;;;;;15.32;12.45;;;1.70;99.90;;;;;;5016610;28;20134;-70
2020/12/02 02:01:53;;;;;;;17.73;13.02;;;1.70;99.90;;;;;;5019417;28;20040;-68
2020/12/02 02:04:26;;;;;;;19.08;13.48;;;1.80;99.90;;;;;;5017045;28;20049;-68
2020/12/02 02:07:16;;;;;;;17.23;13.52;;;1.80;99.90;;;;;;5017630;28;20787;-67
2020/12/02 02:09:48;;;;;;;20.00;13.35;;;1.90;99.90;;;;;;5021903;28;20037;-69
2020/12/02 02:12:36;;;;;;;18.10;13.98;;;1.90;99.90;;;;;;5019876;28;20075;-68
2020/12/02 02:15:14;;;;;;;18.13;14.35;;;1.90;99.90;;;;;;5019655;28;20059;-71
2020/12/02 02:17:40;;;;;;;19.80;14.80;;;1.90;99.90;;;;;;5021688;28;20124;-66
2020/12/02 02:20:08;;;;;;;21.90;16.55;;;1.90;99.90;;;;;;5017442;28;20103;-71
2020/12/02 02:22:35;;;;;;;20.67;14.88;;;1.90;99.90;;;;;;5016277;28;20771;-67
2020/12/02 02:25:02;;;;;;;21.02;16.13;;;1.90;99.90;;;;;;5019117;28;20168;-67
2020/12/02 02:27:29;;;;;;;21.73;15.10;;;1.90;99.90;;;;;;5020845;28;20056;-67
2020/12/02 02:29:56;;;;;;;19.65;14.15;;;1.90;99.90;;;;;;5017943;28;20060;-66
2020/12/02 02:32:26;;;;;;;20.08;16.10;;;1.90;99.90;;;;;;5018512;28;20053;-66
2020/12/02 02:34:54;;;;;;;;;;;1.90;99.90;;;;;;5016648;28;20616;-69
2020/12/02 02:37:29;;;;;;;20.48;15.75;;;1.90;99.90;;;;;;5015747;28;19956;-71
2020/12/02 02:39:57;;;;;;;21.30;16.00;;;1.90;99.90;;;;;;5019009;28;20349;-68
2020/12/02 02:42:30;;;;;;;18.85;15.35;;;1.90;99.90;;;;;;5014146;28;20194;-67
2020/12/02 02:44:59;;;;;;;23.15;16.33;;;1.90;99.90;;;;;;5017593;28;20045;-71
2020/12/02 02:47:25;;;;;;;18.63;14.90;;;1.90;99.90;;;;;;5019909;28;20782;-70
2020/12/02 02:49:52;;;;;;;21.58;15.15;;;1.90;99.90;;;;;;5017981;28;20397;-71
2020/12/02 02:52:19;;;;;;;18.58;16.02;;;1.90;99.90;;;;;;5018159;28;20041;-71
2020/12/02 02:54:45;;;;;;;21.75;16.83;;;2.00;99.90;;;;;;5016140;28;20041;-67
2020/12/02 02:57:12;;;;;;;21.23;15.57;;;1.90;99.90;;;;;;5017953;28;20049;-71
2020/12/02 02:59:39;;;;;;;18.67;15.15;;;2.00;99.90;;;;;;5017269;28;20808;-66
2020/12/02 03:02:10;;;;;;;21.77;15.95;;;2.00;99.90;;;;;;5016373;28;20152;-67
2020/12/02 03:04:36;;;;;;;;;;;2.00;99.90;;;;;;5016386;28;20080;-70
2020/12/02 03:07:04;;;;;;;19.42;14.77;;;2.00;99.90;;;;;;5015124;28;19925;-67
2020/12/02 03:09:32;;;;;;;25.08;17.60;;;2.00;99.90;;;;;;5020688;28;20164;-71
2020/12/02 03:11:58;;;;;;;21.55;16.65;;;2.00;99.90;;;;;;5014027;28;20193;-67
2020/12/02 03:14:25;;;;;;;22.58;16.38;;;2.00;99.90;;;;;;5015433;28;20172;-67
2020/12/02 03:16:54;;;;;;;27.45;18.40;;;2.00;99.90;;;;;;5020046;28;20126;-70
2020/12/02 03:19:31;;;;;;;18.70;14.90;;;2.10;99.90;;;;;;5017818;28;20045;-68
2020/12/02 03:22:03;;;;;;;21.75;16.23;;;2.10;99.90;;;;;;5016747;28;20037;-71
2020/12/02 03:24:30;;;;;;;19.52;16.38;;;2.10;99.90;;;;;;5018623;28;20087;-66
2020/12/02 03:26:56;;;;;;;23.83;17.60;;;2.10;99.90;;;;;;5019862;28;20064;-67
2020/12/02 03:29:23;;;;;;;22.83;16.95;;;2.10;99.90;;;;;;5021065;28;20120;-71
2020/12/02 03:31:50;;;;;;;22.95;17.20;;;2.10;99.90;;;;;;5022687;28;20127;-66
2020/12/02 03:34:18;;;;;;;24.67;16.98;;;2.10;99.90;;;;;;5024310;28;20045;-69
2020/12/02 03:36:45;;;;;;;22.73;16.77;;;2.10;99.90;;;;;;5015500;28;20092;-69
2020/12/02 03:39:13;;;;;;;22.58;16.70;;;2.10;99.90;;;;;;5024691;28;20126;-71
2020/12/02 03:41:41;;;;;;;23.67;17.17;;;2.10;99.90;;;;;;5023587;28;20049;-66
2020/12/02 03:44:09;;;;;;;22.70;17.98;;;2.10;99.90;;;;;;5022396;28;20808;-71
2020/12/02 03:46:36;;;;;;;24.52;17.38;;;2.10;99.90;;;;;;5020764;28;20893;-69
2020/12/02 03:49:04;;;;;;;24.38;16.98;;;2.10;99.90;;;;;;5020149;28;20129;-68
2020/12/02 03:51:31;;;;;;;24.60;18.30;;;2.10;99.90;;;;;;5025244;28;20056;-69
2020/12/02 03:53:59;;;;;;;22.08;15.90;;;2.10;99.90;;;;;;5020587;28;20051;-68
2020/12/02 03:56:26;;;;;;;24.30;17.38;;;2.10;99.90;;;;;;5018417;28;20053;-68
2020/12/02 03:58:52;;;;;;;23.25;18.00;;;2.10;99.90;;;;;;5022417;28;20128;-66
2020/12/02 04:01:19;;;;;;;26.27;18.30;;;2.10;99.90;;;;;;5020337;28;20207;-67
2020/12/02 04:03:46;;;;;;;22.73;17.88;;;2.10;99.90;;;;;;5021678;28;20034;-69
2020/12/02 04:06:13;;;;;;;21.92;16.48;;;2.10;99.90;;;;;;5020178;28;20081;-71
2020/12/02 04:08:41;;;;;;;24.23;18.00;;;2.10;99.90;;;;;;5021492;28;20049;-71
2020/12/02 04:11:09;;;;;;;21.55;17.88;;;2.10;99.90;;;;;;5021189;28;20134;-66
2020/12/02 04:13:36;;;;;;;21.83;15.43;;;2.10;99.90;;;;;;5022514;28;20050;-67
2020/12/02 04:16:03;;;;;;;24.90;17.75;;;2.10;99.90;;;;;;5020745;28;20049;-68
2020/12/02 04:18:30;;;;;;;24.88;18.33;;;2.10;99.90;;;;;;5023090;28;20056;-66
2020/12/02 04:20:57;;;;;;;20.50;16.20;;;2.10;99.90;;;;;;5021533;28;20153;-70
2020/12/02 04:23:24;;;;;;;22.25;17.17;;;2.10;99.90;;;;;;5017479;28;20045;-67
2020/12/02 04:25:51;;;;;;;19.75;15.07;;;2.10;99.90;;;;;;5018825;28;21012;-71
2020/12/02 04:28:18;;;;;;;20.08;16.08;;;2.00;99.90;;;;;;5020829;28;20052;-66
2020/12/02 04:30:46;;;;;;;22.05;17.95;;;2.00;99.90;;;;;;5017886;28;20049;-70
2020/12/02 04:33:13;;;;;;;24.58;16.48;;;1.90;99.90;;;;;;5025046;28;21021;-67
2020/12/02 04:35:39;;;;;;;22.05;16.17;;;1.90;99.90;;;;;;5021959;28;20346;-70
2020/12/02 04:38:08;;;;;;;19.90;15.35;;;1.90;99.90;;;;;;5024817;28;20346;-71
2020/12/02 04:40:40;;;;;;;23.25;16.05;;;1.90;99.90;;;;;;5017035;28;20911;-69
2020/12/02 04:43:27;;;;;;;23.00;15.70;;;1.90;99.90;;;;;;5018425;28;20566;-68
2020/12/02 04:45:55;;;;;;;20.20;16.17;;;1.90;99.90;;;;;;5021820;28;20037;-70
2020/12/02 04:48:26;;;;;;;24.05;15.93;;;1.90;99.90;;;;;;5017784;28;20124;-69
2020/12/02 04:51:00;;;;;;;23.67;17.58;;;1.80;99.90;;;;;;5022030;28;20060;-66
2020/12/02 04:53:26;;;;;;;24.42;18.83;;;1.90;99.90;;;;;;5020244;28;20080;-68
2020/12/02 04:55:56;;;;;;;23.88;17.52;;;1.80;99.90;;;;;;5018600;28;20151;-71
2020/12/02 04:58:28;;;;;;;23.13;17.98;;;1.90;99.90;;;;;;5022177;28;20060;-71
2020/12/02 05:01:12;;;;;;;23.83;17.42;;;1.90;99.90;;;;;;5018404;28;20052;-67
2020/12/02 05:03:53;;;;;;;26.95;18.60;;;1.90;99.90;;;;;;5020869;28;20057;-69
2020/12/02 05:06:35;;;;;;;23.88;16.73;;;1.90;99.90;;;;;;5016955;28;20049;-69
2020/12/02 05:09:08;;;;;;;23.85;18.05;;;1.90;99.90;;;;;;5020114;28;20060;-66
2020/12/02 05:11:36;;;;;;;21.27;17.10;;;1.90;99.90;;;;;;5018648;28;20377;-67
2020/12/02 05:14:05;;;;;;;25.77;18.48;;;1.90;99.90;;;;;;5018290;28;20156;-70
2020/12/02 05:16:32;;;;;;;28.40;19.80;;;1.90;99.90;;;;;;5018500;28;20056;-69
2020/12/02 05:19:02;;;;;;;23.15;16.15;;;1.90;99.90;;;;;;5048771;28;20230;-68
2020/12/02 05:21:41;;;;;;;22.25;17.95;;;1.90;99.90;;;;;;5018216;28;20057;-68
2020/12/02 05:24:19;;;;;;;24.75;17.20;;;1.90;99.90;;;;;;5020715;28;20505;-68
2020/12/02 05:26:48;;;;;;;24.85;17.42;;;1.90;99.90;;;;;;5012902;28;20056;-68
2020/12/02 05:29:42;;;;;;;30.80;17.30;;;1.90;99.90;;;;;;5022190;28;20634;-67
2020/12/02 05:32:21;;;;;;;24.67;17.08;;;1.90;99.90;;;;;;5014886;28;20053;-67
2020/12/02 05:34:47;;;;;;;28.80;18.65;;;1.90;99.90;;;;;;5016423;28;20454;-68
2020/12/02 05:37:36;;;;;;;25.52;17.20;;;1.90;99.90;;;;;;5019659;28;20060;-71
2020/12/02 05:40:09;;;;;;;24.38;16.73;;;1.90;99.90;;;;;;5006144;28;20080;-71
2020/12/02 05:42:40;;;;;;;32.08;17.92;;;1.90;99.90;;;;;;5019095;28;20075;-67
2020/12/02 05:45:35;;;;;;;25.27;17.65;;;1.90;99.90;;;;;;5014311;28;21072;-68
2020/12/02 05:48:04;;;;;;;27.33;18.98;;;2.00;99.90;;;;;;5014217;28;20213;-66
2020/12/02 05:50:31;;;;;;;36.08;19.20;;;2.00;99.90;;;;;;5016057;28;20529;-66
2020/12/02 05:53:19;;;;;;;27.75;19.48;;;2.00;99.90;;;;;;5014356;28;20700;-71
2020/12/02 05:55:47;;;;;;;27.17;19.20;;;2.00;99.90;;;;;;5014174;28;20049;-68
2020/12/02 05:58:18;;;;;;;34.63;22.08;;;2.00;99.90;;;;;;5015410;28;20377;-66
2020/12/02 06:00:44;;;;;;;26.65;17.23;;;2.10;99.90;;;;;;5013424;28;20532;-71
2020/12/02 06:03:14;;;;;;;27.90;22.05;;;2.10;99.90;;;;;;5013372;28;20776;-69
2020/12/02 06:05:40;;;;;;;27.83;18.73;;;2.10;99.90;;;;;;5012954;28;20045;-70
2020/12/02 06:08:10;;;;;;;28.95;19.33;;;2.10;99.90;;;;;;5017822;28;20073;-72
2020/12/02 06:10:42;;;;;;;27.55;18.63;;;2.10;99.90;;;;;;5013289;28;20747;-71
2020/12/02 06:13:16;;;;;;;39.55;18.33;;;2.10;99.90;;;;;;5018581;28;20860;-71
2020/12/02 06:15:43;;;;;;;34.45;19.17;;;2.10;99.90;;;;;;5016399;28;20061;-66
2020/12/02 06:18:26;;;;;;;28.65;21.35;;;2.10;99.90;;;;;;5019565;28;20401;-71
2020/12/02 06:20:52;;;;;;;29.35;19.08;;;2.10;99.90;;;;;;5022242;28;20049;-67
2020/12/02 06:23:18;;;;;;;39.30;21.77;;;2.10;99.90;;;;;;5015194;28;20037;-71
2020/12/02 06:25:50;;;;;;;30.25;19.42;;;2.20;99.90;;;;;;5023955;28;20164;-67
2020/12/02 06:28:30;;;;;;;28.55;20.17;;;2.20;99.90;;;;;;5021288;28;20053;-67
2020/12/02 06:30:57;;;;;;;33.10;20.40;;;2.20;99.90;;;;;;5021003;28;20067;-74
2020/12/02 06:33:31;;;;;;;33.65;20.15;;;2.20;99.90;;;;;;5031073;28;20278;-77
2020/12/02 06:36:25;;;;;;;34.28;20.52;;;2.20;99.90;;;;;;5019827;28;20049;-71
2020/12/02 06:39:25;;;;;;;34.17;22.08;;;2.20;99.90;;;;;;5018055;28;20045;-81
2020/12/02 06:41:51;;;;;;;34.53;19.42;;;2.30;99.90;;;;;;4990059;28;20714;-77
2020/12/02 06:44:56;;;;;;;28.67;20.08;;;2.30;99.90;;;;;;5028485;28;20075;-78
2020/12/02 06:47:26;;;;;;;37.60;23.75;;;2.20;99.90;;;;;;5022406;28;20049;-76
2020/12/02 06:49:56;;;;;;;34.65;24.25;;;2.20;99.90;;;;;;5023929;28;20135;-75
2020/12/02 06:52:40;;;;;;;38.78;26.30;;;2.30;99.90;;;;;;5019245;28;20053;-71
2020/12/02 06:55:26;;;;;;;41.25;23.30;;;2.20;99.90;;;;;;5025432;28;20045;-82
2020/12/02 06:57:55;;;;;;;37.05;22.75;;;2.30;99.90;;;;;;5022675;28;20038;-67
2020/12/02 07:00:26;;;;;;;37.30;22.63;;;2.20;99.90;;;;;;5024050;28;20057;-81
2020/12/02 07:03:02;;;;;;;38.72;22.58;;;2.20;99.90;;;;;;5021458;28;20476;-66
2020/12/02 07:05:43;;;;;;;39.63;21.88;;;2.20;99.90;;;;;;5022865;28;20461;-72
2020/12/02 07:08:17;;;;;;;;;;;2.20;99.90;;;;;;5027414;28;20076;-80
2020/12/02 07:11:04;;;;;;;39.92;19.60;;;2.30;99.90;;;;;;5023400;28;19935;-68
2020/12/02 07:13:37;;;;;;;41.88;20.20;;;2.20;99.90;;;;;;5022287;28;20055;-76
2020/12/02 07:16:23;;;;;;;29.80;19.02;;;2.20;99.90;;;;;;5024382;28;20500;-66
2020/12/02 07:19:05;;;;;;;28.73;19.33;;;2.30;99.90;;;;;;5021825;28;20048;-76
2020/12/02 07:21:37;;;;;;;32.30;18.13;;;2.30;99.90;;;;;;5026300;28;20045;-74
2020/12/02 07:24:04;;;;;;;34.53;20.17;;;2.20;99.90;;;;;;5026383;28;20052;-78
2020/12/02 07:26:31;;;;;;;29.65;18.35;;;2.30;99.90;;;;;;5027771;28;20095;-80
2020/12/02 07:29:03;;;;;;;30.40;20.35;;;2.30;99.90;;;;;;5022717;28;20053;-73
2020/12/02 07:31:31;;;;;;;27.58;18.13;;;2.20;99.90;;;;;;5026076;28;20107;-73
2020/12/02 07:34:03;;;;;;;26.13;18.88;;;2.30;99.90;;;;;;5024379;28;20060;-78
2020/12/02 07:36:33;;;;;;;34.90;20.75;;;2.30;99.90;;;;;;5026918;28;20079;-72
2020/12/02 07:39:16;;;;;;;37.28;22.38;;;2.30;99.90;;;;;;5025044;28;20120;-70
2020/12/02 07:42:00;;;;;;;29.27;22.80;;;2.30;99.90;;;;;;5024315;28;20056;-71
2020/12/02 07:44:35;;;;;;;38.13;24.00;;;2.30;99.90;;;;;;5027719;28;20406;-69
2020/12/02 07:47:06;;;;;;;37.65;24.90;;;2.30;99.90;;;;;;5026515;28;20053;-77
2020/12/02 07:49:36;;;;;;;42.97;29.10;;;2.30;99.90;;;;;;5024549;28;20049;-71
2020/12/02 07:52:13;;;;;;;50.67;32.80;;;2.30;99.90;;;;;;5022155;28;20132;-67
2020/12/02 07:54:40;;;;;;;50.92;37.10;;;2.40;99.90;;;;;;5022261;28;20049;-71
2020/12/02 07:57:12;;;;;;;58.88;42.38;;;2.40;99.90;;;;;;5025083;28;20657;-75
2020/12/02 08:00:01;;;;;;;56.55;40.72;;;2.40;99.90;;;;;;5024553;28;20099;-76
2020/12/02 08:02:40;;;;;;;65.47;42.17;;;2.40;99.90;;;;;;5024363;28;20075;-78
2020/12/02 08:05:39;;;;;;;56.45;40.67;;;2.40;99.90;;;;;;5033501;28;20522;-72
2020/12/02 08:08:06;;;;;;;43.45;32.03;;;2.50;99.90;;;;;;5028859;28;20059;-79
2020/12/02 08:10:35;;;;;;;44.35;30.05;;;2.50;99.90;;;;;;5026936;28;20140;-78
2020/12/02 08:13:22;;;;;;;40.03;27.27;;;2.50;99.90;;;;;;5033701;28;20052;-81
2020/12/02 08:15:53;;;;;;;43.50;24.20;;;2.50;99.90;;;;;;5024872;28;20107;-71
2020/12/02 08:18:23;;;;;;;35.60;22.60;;;2.50;99.90;;;;;;5024097;28;20080;-71
2020/12/02 08:20:50;;;;;;;36.90;20.67;;;2.50;99.90;;;;;;5031712;28;20045;-82
2020/12/02 08:23:24;;;;;;;40.85;21.63;;;2.60;99.90;;;;;;5029623;28;20040;-76
2020/12/02 08:26:03;;;;;;;34.47;20.88;;;2.60;99.90;;;;;;5025774;28;20667;-74
2020/12/02 08:28:40;;;;;;;34.45;21.75;;;2.60;99.90;;;;;;5028494;28;20052;-69
2020/12/02 08:31:26;;;;;;;31.15;20.25;;;2.60;99.90;;;;;;5025329;28;20495;-75
2020/12/02 08:34:11;;;;;;;28.83;19.02;;;2.60;99.90;;;;;;5024835;28;20168;-74
2020/12/02 08:36:45;;;;;;;29.73;19.40;;;2.60;99.90;;;;;;5054748;28;20059;-79
2020/12/02 08:39:31;;;;;;;35.50;21.02;;;2.70;99.90;;;;;;5024640;28;20061;-76
2020/12/02 08:41:58;;;;;;;34.38;23.92;;;2.70;99.90;;;;;;5027255;28;20162;-79
2020/12/02 08:44:24;;;;;;;34.45;21.88;;;2.60;99.90;;;;;;5029002;28;20114;-74
2020/12/02 08:46:54;;;;;;;36.20;24.83;;;2.70;99.90;;;;;;5023743;28;20053;-71
2020/12/02 08:49:25;;;;;;;34.05;22.30;;;2.70;99.90;;;;;;5030764;28;20136;-69
2020/12/02 08:51:52;;;;;;;35.78;24.52;;;2.70;99.90;;;;;;5030673;28;20579;-69
2020/12/02 08:54:21;;;;;;;41.05;24.95;;;2.70;99.90;;;;;;5022301;28;20230;-76
2020/12/02 08:56:49;;;;;;;43.85;26.42;;;2.70;99.90;;;;;;5020855;28;20053;-80
2020/12/02 08:59:15;;;;;;;33.33;20.50;;;2.80;99.90;;;;;;5032395;28;20207;-78
2020/12/02 09:01:42;;;;;;;31.77;20.25;;;2.80;99.90;;;;;;5027672;28;20057;-73
2020/12/02 09:04:09;;;;;;;35.25;20.65;;;2.80;99.90;;;;;;5024489;28;20635;-83
2020/12/02 09:06:35;;;;;;;32.47;18.95;;;2.80;99.90;;;;;;5023873;28;20056;-72
2020/12/02 09:09:04;;;;;;;34.03;21.35;;;2.80;99.90;;;;;;5021645;28;20463;-81
2020/12/02 09:11:36;;;;;;;35.38;21.83;;;2.90;99.90;;;;;;5032907;28;20044;-72
2020/12/02 09:14:04;;;;;;;42.60;24.98;;;2.90;99.90;;;;;;5024722;28;20210;-70
2020/12/02 09:16:37;;;;;;;41.72;25.05;;;2.90;99.90;;;;;;5028643;28;20131;-68
2020/12/02 09:19:06;;;;;;;39.90;25.40;;;2.90;99.90;;;;;;5030146;28;20057;-72
2020/12/02 09:21:33;;;;;;;41.65;26.27;;;2.90;99.90;;;;;;5026970;28;20058;-66
2020/12/02 09:24:00;;;;;;;47.80;26.90;;;2.90;99.90;;;;;;5030832;28;20146;-76
2020/12/02 09:26:30;;;;;;;39.65;24.35;;;3.00;99.90;;;;;;5020202;28;20041;-77
2020/12/02 09:28:57;;;;;;;44.13;26.45;;;3.00;99.90;;;;;;5030475;28;20040;-74
2020/12/02 09:31:27;;;;;;;41.00;27.35;;;3.00;99.90;;;;;;5023361;28;20425;-71
2020/12/02 09:33:53;;;;;;;40.80;26.73;;;3.00;99.90;;;;;;5025276;28;20068;-73
2020/12/02 09:36:21;;;;;;;50.95;28.40;;;3.10;99.90;;;;;;5023784;28;20048;-73
2020/12/02 09:38:49;;;;;;;45.80;27.52;;;3.10;99.90;;;;;;5023437;28;20550;-82
2020/12/02 09:41:40;;;;;;;48.97;27.65;;;3.10;99.90;;;;;;5027914;28;20148;-72
2020/12/02 09:44:15;;;;;;;54.00;30.60;;;3.10;99.90;;;;;;5022190;28;20115;-79
2020/12/02 09:46:44;;;;;;;47.20;28.77;;;3.20;99.90;;;;;;5021299;28;20149;-75
2020/12/02 09:49:12;;;;;;;48.67;26.60;;;3.20;99.90;;;;;;5021092;28;20935;-74
2020/12/02 09:51:40;;;;;;;47.58;24.92;;;3.20;99.90;;;;;;5026361;28;20055;-76
2020/12/02 09:54:11;;;;;;;42.92;26.35;;;3.20;99.90;;;;;;5021482;28;20864;-73
2020/12/02 09:56:42;;;;;;;40.38;23.73;;;3.30;99.90;;;;;;5028334;28;20119;-78
2020/12/02 09:59:10;;;;;;;44.78;23.23;;;3.30;99.90;;;;;;5027123;28;20056;-67
2020/12/02 10:02:25;;;;;;;41.08;24.92;;;3.30;99.90;;;;;;5025529;28;20061;-78
2020/12/02 10:05:12;;;;;;;39.30;22.33;;;3.40;99.90;;;;;;5017703;28;20123;-70
2020/12/02 10:07:38;;;;;;;38.45;23.40;;;3.40;99.90;;;;;;5009663;28;20844;-66
2020/12/02 10:10:13;;;;;;;38.65;24.25;;;3.40;99.90;;;;;;5018597;28;20140;-66
2020/12/02 10:12:49;;;;;;;34.10;23.00;;;3.40;99.90;;;;;;5018505;28;20060;-67
2020/12/02 10:15:27;;;;;;;39.97;23.10;;;3.40;99.90;;;;;;5037278;28;20115;-64
2020/12/02 10:18:32;;;;;;;39.13;24.10;;;3.40;99.90;;;;;;5016311;28;20046;-64
2020/12/02 10:21:29;;;;;;;37.97;26.48;;;3.40;99.90;;;;;;5018843;28;20056;-67
2020/12/02 10:24:11;;;;;;;43.15;25.23;;;3.40;99.90;;;;;;5021903;28;20873;-67
2020/12/02 10:27:03;;;;;;;38.47;25.48;;;3.40;99.90;;;;;;5021461;28;20745;-66
2020/12/02 10:29:44;;;;;;;48.13;29.83;;;3.40;99.90;;;;;;5018483;28;20079;-64
2020/12/02 10:32:16;;;;;;;45.40;26.80;;;3.40;99.90;;;;;;5026295;28;20091;-67
2020/12/02 10:34:43;;;;;;;43.55;30.92;;;3.40;99.90;;;;;;5018172;28;20053;-65
2020/12/02 10:37:16;;;;;;;48.85;32.55;;;3.40;99.90;;;;;;5020885;28;20061;-67
2020/12/02 10:39:43;;;;;;;40.63;27.65;;;3.40;99.90;;;;;;5022477;28;20040;-65
2020/12/02 10:42:28;;;;;;;33.60;21.70;;;3.40;99.90;;;;;;5022024;28;20744;-64
2020/12/02 10:45:09;;;;;;;41.33;24.65;;;3.40;99.90;;;;;;5022189;28;20061;-65
2020/12/02 10:47:48;;;;;;;39.40;23.17;;;3.40;99.90;;;;;;5052695;28;20135;-67
2020/12/02 10:50:17;;;;;;;37.42;25.58;;;3.30;99.90;;;;;;5020636;28;20160;-64
2020/12/02 10:52:49;;;;;;;40.22;26.65;;;3.30;99.90;;;;;;5024129;28;20132;-64
2020/12/02 10:55:21;;;;;;;37.35;24.98;;;3.30;99.90;;;;;;5020197;28;20108;-67
2020/12/02 10:58:13;;;;;;;36.40;24.30;;;3.40;99.90;;;;;;5024621;28;20041;-67
2020/12/02 11:00:40;;;;;;;36.65;24.48;;;3.40;99.90;;;;;;5022478;28;20052;-65
2020/12/02 11:03:12;;;;;;;37.88;25.70;;;3.30;99.90;;;;;;5022931;28;20079;-65
2020/12/02 11:05:42;;;;;;;42.28;26.58;;;3.40;99.90;;;;;;5026440;28;20131;-67
2020/12/02 11:08:21;;;;;;;41.95;27.27;;;3.30;99.90;;;;;;5021146;28;20061;-65
2020/12/02 11:10:54;;;;;;;41.40;27.58;;;3.30;99.90;;;;;;5028829;28;20055;-68
2020/12/02 11:13:24;;;;;;;42.15;28.80;;;3.30;99.90;;;;;;5027367;28;20080;-67
2020/12/02 11:16:05;;;;;;;47.38;30.73;;;3.30;99.90;;;;;;5018765;28;20060;-66
2020/12/02 11:18:34;;;;;;;43.65;29.58;;;3.30;99.90;;;;;;5020330;28;20064;-66
2020/12/02 11:21:45;;;;;;;48.60;33.38;;;3.40;99.90;;;;;;5023838;28;20472;-69
2020/12/02 11:24:55;;;;;;;44.95;33.28;;;3.40;99.90;;;;;;4982572;28;20267;-69
2020/12/02 11:27:22;;;;;;;;;;;3.40;99.90;;;;;;4944973;28;20047;-66
2020/12/02 11:29:50;;;;;;;46.08;27.38;;;3.40;99.90;;;;;;5006125;28;19929;-65
2020/12/02 11:33:01;;;;;;;45.42;31.20;;;3.40;99.90;;;;;;5017784;28;20056;-65
2020/12/02 11:35:39;;;;;;;48.40;32.97;;;3.40;99.90;;;;;;4949269;28;20048;-66
2020/12/02 11:38:15;;;;;;;50.65;34.33;;;3.40;99.90;;;;;;4999313;28;20060;-67
2020/12/02 11:40:52;;;;;;;53.78;34.45;;;3.40;99.90;;;;;;4998491;28;20430;-65
2020/12/02 11:43:26;;;;;;;53.90;36.30;;;3.40;99.90;;;;;;5002197;28;20049;-69
2020/12/02 11:45:56;;;;;;;58.20;37.13;;;3.40;99.90;;;;;;4999433;28;20160;-65
2020/12/02 11:48:25;;;;;;;50.03;35.83;;;3.40;99.90;;;;;;5001500;28;20049;-66
2020/12/02 11:50:57;;;;;;;50.40;31.40;;;3.30;99.90;;;;;;5018644;28;20511;-66
2020/12/02 11:53:42;;;;;;;54.28;34.22;;;3.30;99.90;;;;;;5020513;28;20130;-66
2020/12/02 11:56:14;;;;;;;55.85;30.77;;;3.30;99.90;;;;;;5029946;28;20049;-66
2020/12/02 11:58:43;;;;;;;49.72;31.08;;;3.30;99.90;;;;;;5019331;28;20057;-65
2020/12/02 12:01:25;;;;;;;48.08;29.38;;;3.30;99.90;;;;;;5023402;28;20778;-66
2020/12/02 12:04:05;;;;;;;43.38;27.77;;;3.40;99.90;;;;;;5022922;28;20045;-66
2020/12/02 12:06:32;;;;;;;41.40;27.23;;;3.40;99.90;;;;;;5017857;28;20073;-66
2020/12/02 12:09:12;;;;;;;53.40;27.95;;;3.40;99.90;;;;;;5031270;28;20049;-67
2020/12/02 12:11:40;;;;;;;42.63;26.63;;;3.40;99.90;;;;;;5021196;28;20045;-66
2020/12/02 12:14:26;;;;;;;44.20;27.15;;;3.40;99.90;;;;;;5019214;28;20127;-67
2020/12/02 12:17:12;;;;;;;34.95;23.67;;;3.40;99.90;;;;;;5023248;28;20855;-66
2020/12/02 12:19:54;;;;;;;38.47;26.38;;;3.40;99.90;;;;;;5023106;28;20041;-65
2020/12/02 12:22:23;;;;;;;37.08;25.00;;;3.40;99.90;;;;;;5023176;28;20206;-68
2020/12/02 12:24:50;;;;;;;41.67;25.85;;;3.40;99.90;;;;;;4997672;28;20069;-68
2020/12/02 12:27:21;;;;;;;35.53;23.98;;;3.50;99.90;;;;;;5001401;28;20041;-67
2020/12/02 12:29:50;;;;;;;34.65;23.35;;;3.50;99.90;;;;;;5002208;28;20045;-68
2020/12/02 12:32:17;;;;;;;38.85;24.92;;;3.50;99.90;;;;;;5008836;28;20796;-66
2020/12/02 12:35:06;;;;;;;35.05;23.80;;;3.50;99.90;;;;;;5001852;28;20057;-64
2020/12/02 12:38:04;;;;;;;37.17;24.70;;;3.50;99.90;;;;;;5004442;28;20049;-64
2020/12/02 12:40:39;;;;;;;36.90;22.80;;;3.50;99.90;;;;;;4999907;28;20302;-69
2020/12/02 12:43:12;;;;;;;36.20;23.73;;;3.50;99.90;;;;;;5003220;28;20048;-67
2020/12/02 12:45:44;;;;;;;37.17;22.13;;;3.50;99.90;;;;;;5005142;28;20151;-64
2020/12/02 12:48:19;;;;;;;34.50;21.35;;;3.60;99.90;;;;;;5005876;28;20138;-65
2020/12/02 12:50:48;;;;;;;31.52;21.20;;;3.50;99.90;;;;;;4997979;28;20054;-68
2020/12/02 12:53:17;;;;;;;33.95;22.65;;;3.50;99.90;;;;;;5007579;28;21098;-68
2020/12/02 12:55:43;;;;;;;36.30;24.27;;;3.50;99.90;;;;;;5002188;28;20046;-65
2020/12/02 12:58:16;;;;;;;32.40;20.60;;;3.50;99.90;;;;;;5006020;28;20480;-69
2020/12/02 13:00:46;;;;;;;32.05;21.95;;;3.50;99.90;;;;;;5001830;28;20117;-68
2020/12/02 13:03:20;;;;;;;28.73;21.08;;;3.50;99.90;;;;;;5004243;28;20048;-64
2020/12/02 13:06:13;;;;;;;32.22;18.08;;;3.50;99.90;;;;;;5000162;28;20057;-67
2020/12/02 13:08:47;;;;;;;28.85;17.92;;;3.50;99.90;;;;;;4996495;28;20044;-66
2020/12/02 13:11:30;;;;;;;29.13;18.92;;;3.50;99.90;;;;;;5004833;28;20151;-65